sensor_id;sensor_type;location;lat;lon;timestamp;temperature;humidity
68556;HTU21D;55544;51.032;5.866;2023-01-24T00:00:38;5.34;74.04
68556;HTU21D;55544;51.032;5.866;2023-01-24T00:03:04;5.38;74.18
68556;HTU21D;55544;51.032;5.866;2023-01-24T00:05:33;5.40;73.98
68556;HTU21D;55544;51.032;5.866;2023-01-24T00:07:59;5.41;73.93
68556;HTU21D;55544;51.032;5.866;2023-01-24T00:10:25;5.45;73.88
68556;HTU21D;55544;51.032;5.866;2023-01-24T00:12:50;5.41;73.78
68556;HTU21D;55544;51.032;5.866;2023-01-24T00:15:16;5.42;73.67
68556;HTU21D;55544;51.032;5.866;2023-01-24T00:17:42;5.41;73.74
68556;HTU21D;55544;51.032;5.866;2023-01-24T00:20:08;5.41;73.86
68556;HTU21D;55544;51.032;5.866;2023-01-24T00:22:34;5.42;73.86
68556;HTU21D;55544;51.032;5.866;2023-01-24T00:25:00;5.45;73.77
68556;HTU21D;55544;51.032;5.866;2023-01-24T00:27:26;5.47;73.77
68556;HTU21D;55544;51.032;5.866;2023-01-24T00:29:51;5.47;73.90
68556;HTU21D;55544;51.032;5.866;2023-01-24T00:32:17;5.46;73.63
68556;HTU21D;55544;51.032;5.866;2023-01-24T00:34:43;5.39;73.45
68556;HTU21D;55544;51.032;5.866;2023-01-24T00:37:08;5.32;73.63
68556;HTU21D;55544;51.032;5.866;2023-01-24T00:39:34;5.27;73.82
68556;HTU21D;55544;51.032;5.866;2023-01-24T00:42:00;5.27;74.11
68556;HTU21D;55544;51.032;5.866;2023-01-24T00:44:25;5.30;74.06
68556;HTU21D;55544;51.032;5.866;2023-01-24T00:46:52;5.30;74.19
68556;HTU21D;55544;51.032;5.866;2023-01-24T00:49:18;5.32;74.26
68556;HTU21D;55544;51.032;5.866;2023-01-24T00:51:43;5.33;74.22
68556;HTU21D;55544;51.032;5.866;2023-01-24T00:54:10;5.34;74.04
68556;HTU21D;55544;51.032;5.866;2023-01-24T00:56:35;5.31;73.90
68556;HTU21D;55544;51.032;5.866;2023-01-24T00:59:01;5.26;73.99
68556;HTU21D;55544;51.032;5.866;2023-01-24T01:01:27;5.24;74.11
68556;HTU21D;55544;51.032;5.866;2023-01-24T01:03:56;5.26;74.35
68556;HTU21D;55544;51.032;5.866;2023-01-24T01:06:24;5.24;74.17
68556;HTU21D;55544;51.032;5.866;2023-01-24T01:08:51;5.23;74.20
68556;HTU21D;55544;51.032;5.866;2023-01-24T01:11:18;5.24;74.29
68556;HTU21D;55544;51.032;5.866;2023-01-24T01:13:44;5.25;74.31
68556;HTU21D;55544;51.032;5.866;2023-01-24T01:16:16;5.23;74.28
68556;HTU21D;55544;51.032;5.866;2023-01-24T01:18:45;5.26;74.35
68556;HTU21D;55544;51.032;5.866;2023-01-24T01:21:14;5.28;74.43
68556;HTU21D;55544;51.032;5.866;2023-01-24T01:23:40;5.31;74.27
68556;HTU21D;55544;51.032;5.866;2023-01-24T01:26:08;5.24;73.99
68556;HTU21D;55544;51.032;5.866;2023-01-24T01:28:35;5.15;74.11
68556;HTU21D;55544;51.032;5.866;2023-01-24T01:31:01;5.07;74.47
68556;HTU21D;55544;51.032;5.866;2023-01-24T01:33:27;5.05;74.73
68556;HTU21D;55544;51.032;5.866;2023-01-24T01:35:53;5.08;74.91
68556;HTU21D;55544;51.032;5.866;2023-01-24T01:38:19;5.10;74.77
68556;HTU21D;55544;51.032;5.866;2023-01-24T01:40:45;5.09;74.86
68556;HTU21D;55544;51.032;5.866;2023-01-24T01:43:17;5.10;74.87
68556;HTU21D;55544;51.032;5.866;2023-01-24T01:45:48;5.12;74.99
68556;HTU21D;55544;51.032;5.866;2023-01-24T01:54:07;5.12;74.66
68556;HTU21D;55544;51.032;5.866;2023-01-24T01:56:49;5.09;74.81
68556;HTU21D;55544;51.032;5.866;2023-01-24T01:59:23;5.09;75.05
68556;HTU21D;55544;51.032;5.866;2023-01-24T02:01:53;5.10;74.96
68556;HTU21D;55544;51.032;5.866;2023-01-24T02:04:44;5.07;74.99
68556;HTU21D;55544;51.032;5.866;2023-01-24T02:07:20;5.06;75.21
68556;HTU21D;55544;51.032;5.866;2023-01-24T02:09:49;5.07;75.33
68556;HTU21D;55544;51.032;5.866;2023-01-24T02:12:28;5.09;75.18
68556;HTU21D;55544;51.032;5.866;2023-01-24T02:15:04;5.08;75.25
68556;HTU21D;55544;51.032;5.866;2023-01-24T02:17:49;5.03;75.34
68556;HTU21D;55544;51.032;5.866;2023-01-24T02:28:12;5.05;75.44
68556;HTU21D;55544;51.032;5.866;2023-01-24T02:30:38;5.07;75.48
68556;HTU21D;55544;51.032;5.866;2023-01-24T02:33:14;5.11;75.50
68556;HTU21D;55544;51.032;5.866;2023-01-24T02:35:40;5.17;75.45
68556;HTU21D;55544;51.032;5.866;2023-01-24T02:38:26;5.20;75.31
68556;HTU21D;55544;51.032;5.866;2023-01-24T02:40:57;5.21;75.18
68556;HTU21D;55544;51.032;5.866;2023-01-24T02:43:39;5.20;75.03
68556;HTU21D;55544;51.032;5.866;2023-01-24T02:46:05;5.17;74.92
68556;HTU21D;55544;51.032;5.866;2023-01-24T02:48:31;5.11;74.86
68556;HTU21D;55544;51.032;5.866;2023-01-24T02:50:57;5.04;74.98
68556;HTU21D;55544;51.032;5.866;2023-01-24T02:53:41;5.01;75.12
68556;HTU21D;55544;51.032;5.866;2023-01-24T02:56:09;4.97;75.22
68556;HTU21D;55544;51.032;5.866;2023-01-24T02:58:54;5.00;75.44
68556;HTU21D;55544;51.032;5.866;2023-01-24T03:01:21;5.01;75.10
68556;HTU21D;55544;51.032;5.866;2023-01-24T03:03:53;4.97;74.99
68556;HTU21D;55544;51.032;5.866;2023-01-24T03:06:20;4.97;74.96
68556;HTU21D;55544;51.032;5.866;2023-01-24T03:08:46;4.98;74.99
68556;HTU21D;55544;51.032;5.866;2023-01-24T03:11:32;4.93;74.86
68556;HTU21D;55544;51.032;5.866;2023-01-24T03:13:57;4.88;74.87
68556;HTU21D;55544;51.032;5.866;2023-01-24T03:16:42;4.81;74.97
68556;HTU21D;55544;51.032;5.866;2023-01-24T03:19:26;4.79;75.13
68556;HTU21D;55544;51.032;5.866;2023-01-24T03:22:10;4.80;75.20
68556;HTU21D;55544;51.032;5.866;2023-01-24T03:24:55;4.83;75.25
68556;HTU21D;55544;51.032;5.866;2023-01-24T03:27:39;4.84;75.22
68556;HTU21D;55544;51.032;5.866;2023-01-24T03:30:28;4.86;75.19
68556;HTU21D;55544;51.032;5.866;2023-01-24T03:33:13;4.83;75.18
68556;HTU21D;55544;51.032;5.866;2023-01-24T03:35:57;4.80;75.16
68556;HTU21D;55544;51.032;5.866;2023-01-24T03:38:30;4.78;75.11
68556;HTU21D;55544;51.032;5.866;2023-01-24T03:41:15;4.77;75.17
68556;HTU21D;55544;51.032;5.866;2023-01-24T03:43:41;4.78;75.32
68556;HTU21D;55544;51.032;5.866;2023-01-24T03:46:09;4.83;75.29
68556;HTU21D;55544;51.032;5.866;2023-01-24T03:48:45;4.81;75.07
68556;HTU21D;55544;51.032;5.866;2023-01-24T03:51:12;4.75;75.15
68556;HTU21D;55544;51.032;5.866;2023-01-24T03:53:56;4.77;75.35
68556;HTU21D;55544;51.032;5.866;2023-01-24T03:56:27;4.80;75.44
68556;HTU21D;55544;51.032;5.866;2023-01-24T03:58:58;4.88;75.48
68556;HTU21D;55544;51.032;5.866;2023-01-24T04:01:27;4.91;75.41
68556;HTU21D;55544;51.032;5.866;2023-01-24T04:04:00;4.98;75.49
68556;HTU21D;55544;51.032;5.866;2023-01-24T04:06:27;5.04;75.11
68556;HTU21D;55544;51.032;5.866;2023-01-24T04:08:53;5.05;74.99
68556;HTU21D;55544;51.032;5.866;2023-01-24T04:11:20;5.07;74.91
68556;HTU21D;55544;51.032;5.866;2023-01-24T04:13:50;5.05;74.76
68556;HTU21D;55544;51.032;5.866;2023-01-24T04:16:16;5.05;74.76
68556;HTU21D;55544;51.032;5.866;2023-01-24T04:19:00;5.05;74.72
68556;HTU21D;55544;51.032;5.866;2023-01-24T04:21:26;5.05;74.70
68556;HTU21D;55544;51.032;5.866;2023-01-24T04:23:52;5.06;74.65
68556;HTU21D;55544;51.032;5.866;2023-01-24T04:26:18;5.09;74.69
68556;HTU21D;55544;51.032;5.866;2023-01-24T04:28:44;5.10;74.38
68556;HTU21D;55544;51.032;5.866;2023-01-24T04:31:10;5.12;74.51
68556;HTU21D;55544;51.032;5.866;2023-01-24T04:33:55;5.19;74.35
68556;HTU21D;55544;51.032;5.866;2023-01-24T04:36:23;5.17;74.12
68556;HTU21D;55544;51.032;5.866;2023-01-24T04:38:49;5.19;73.99
68556;HTU21D;55544;51.032;5.866;2023-01-24T04:41:22;5.18;73.72
68556;HTU21D;55544;51.032;5.866;2023-01-24T04:43:49;5.10;73.67
68556;HTU21D;55544;51.032;5.866;2023-01-24T04:46:15;5.06;73.73
68556;HTU21D;55544;51.032;5.866;2023-01-24T04:48:50;5.05;73.70
68556;HTU21D;55544;51.032;5.866;2023-01-24T04:51:16;5.06;73.98
68556;HTU21D;55544;51.032;5.866;2023-01-24T04:53:44;5.10;73.79
68556;HTU21D;55544;51.032;5.866;2023-01-24T04:56:11;5.11;73.61
68556;HTU21D;55544;51.032;5.866;2023-01-24T04:58:37;5.13;73.63
68556;HTU21D;55544;51.032;5.866;2023-01-24T05:01:04;5.13;73.64
68556;HTU21D;55544;51.032;5.866;2023-01-24T05:03:34;5.13;73.83
68556;HTU21D;55544;51.032;5.866;2023-01-24T05:06:00;5.15;73.65
68556;HTU21D;55544;51.032;5.866;2023-01-24T05:08:26;5.15;73.32
68556;HTU21D;55544;51.032;5.866;2023-01-24T05:10:53;5.11;73.34
68556;HTU21D;55544;51.032;5.866;2023-01-24T05:13:19;5.11;73.57
68556;HTU21D;55544;51.032;5.866;2023-01-24T05:15:50;5.10;73.80
68556;HTU21D;55544;51.032;5.866;2023-01-24T05:18:17;5.12;73.77
68556;HTU21D;55544;51.032;5.866;2023-01-24T05:20:43;5.15;73.64
68556;HTU21D;55544;51.032;5.866;2023-01-24T05:23:11;5.16;73.43
68556;HTU21D;55544;51.032;5.866;2023-01-24T05:25:41;5.18;73.44
68556;HTU21D;55544;51.032;5.866;2023-01-24T05:28:06;5.15;73.48
68556;HTU21D;55544;51.032;5.866;2023-01-24T05:30:36;5.12;73.47
68556;HTU21D;55544;51.032;5.866;2023-01-24T05:33:13;5.10;73.35
68556;HTU21D;55544;51.032;5.866;2023-01-24T05:35:38;5.12;73.17
68556;HTU21D;55544;51.032;5.866;2023-01-24T05:38:06;5.13;72.89
68556;HTU21D;55544;51.032;5.866;2023-01-24T05:40:32;5.15;72.72
68556;HTU21D;55544;51.032;5.866;2023-01-24T05:42:58;5.11;72.69
68556;HTU21D;55544;51.032;5.866;2023-01-24T05:45:24;5.07;72.83
68556;HTU21D;55544;51.032;5.866;2023-01-24T05:47:52;5.09;72.90
68556;HTU21D;55544;51.032;5.866;2023-01-24T05:50:18;5.07;72.96
68556;HTU21D;55544;51.032;5.866;2023-01-24T05:52:45;5.08;73.21
68556;HTU21D;55544;51.032;5.866;2023-01-24T05:55:10;5.08;73.32
68556;HTU21D;55544;51.032;5.866;2023-01-24T05:57:42;5.08;73.13
68556;HTU21D;55544;51.032;5.866;2023-01-24T06:00:13;5.07;73.22
68556;HTU21D;55544;51.032;5.866;2023-01-24T06:03:02;5.05;73.30
68556;HTU21D;55544;51.032;5.866;2023-01-24T06:05:28;5.06;73.31
68556;HTU21D;55544;51.032;5.866;2023-01-24T06:07:54;5.07;73.43
68556;HTU21D;55544;51.032;5.866;2023-01-24T06:10:20;5.05;73.35
68556;HTU21D;55544;51.032;5.866;2023-01-24T06:13:02;5.04;73.38
68556;HTU21D;55544;51.032;5.866;2023-01-24T06:15:28;5.05;73.34
68556;HTU21D;55544;51.032;5.866;2023-01-24T06:17:54;5.03;73.43
68556;HTU21D;55544;51.032;5.866;2023-01-24T06:20:21;5.01;73.53
68556;HTU21D;55544;51.032;5.866;2023-01-24T06:23:03;5.00;73.52
68556;HTU21D;55544;51.032;5.866;2023-01-24T06:25:31;4.92;73.35
68556;HTU21D;55544;51.032;5.866;2023-01-24T06:27:58;4.89;73.41
68556;HTU21D;55544;51.032;5.866;2023-01-24T06:30:24;4.86;73.57
68556;HTU21D;55544;51.032;5.866;2023-01-24T06:38:22;4.88;73.28
68556;HTU21D;55544;51.032;5.866;2023-01-24T06:40:54;4.88;73.42
68556;HTU21D;55544;51.032;5.866;2023-01-24T06:43:21;4.91;73.49
68556;HTU21D;55544;51.032;5.866;2023-01-24T06:45:47;4.94;73.49
68556;HTU21D;55544;51.032;5.866;2023-01-24T06:48:13;4.97;73.43
68556;HTU21D;55544;51.032;5.866;2023-01-24T06:50:38;4.96;73.35
68556;HTU21D;55544;51.032;5.866;2023-01-24T06:53:05;4.96;73.51
68556;HTU21D;55544;51.032;5.866;2023-01-24T06:55:30;4.96;73.59
68556;HTU21D;55544;51.032;5.866;2023-01-24T06:57:58;4.96;73.83
68556;HTU21D;55544;51.032;5.866;2023-01-24T07:00:25;4.98;73.76
68556;HTU21D;55544;51.032;5.866;2023-01-24T07:03:02;5.03;73.74
68556;HTU21D;55544;51.032;5.866;2023-01-24T07:05:28;5.03;73.53
68556;HTU21D;55544;51.032;5.866;2023-01-24T07:07:54;4.98;73.31
68556;HTU21D;55544;51.032;5.866;2023-01-24T07:10:21;4.95;73.27
68556;HTU21D;55544;51.032;5.866;2023-01-24T07:12:47;4.94;73.26
68556;HTU21D;55544;51.032;5.866;2023-01-24T07:15:13;4.91;73.32
68556;HTU21D;55544;51.032;5.866;2023-01-24T07:17:39;4.89;73.46
68556;HTU21D;55544;51.032;5.866;2023-01-24T07:20:06;4.87;73.38
68556;HTU21D;55544;51.032;5.866;2023-01-24T07:22:32;4.83;73.39
68556;HTU21D;55544;51.032;5.866;2023-01-24T07:24:58;4.82;73.54
68556;HTU21D;55544;51.032;5.866;2023-01-24T07:27:25;4.80;73.39
68556;HTU21D;55544;51.032;5.866;2023-01-24T07:29:51;4.77;73.45
68556;HTU21D;55544;51.032;5.866;2023-01-24T07:32:16;4.77;73.57
68556;HTU21D;55544;51.032;5.866;2023-01-24T07:34:43;4.77;73.39
68556;HTU21D;55544;51.032;5.866;2023-01-24T07:37:09;4.78;73.38
68556;HTU21D;55544;51.032;5.866;2023-01-24T07:39:35;4.80;73.43
68556;HTU21D;55544;51.032;5.866;2023-01-24T07:42:00;4.78;73.32
68556;HTU21D;55544;51.032;5.866;2023-01-24T07:44:26;4.74;73.30
68556;HTU21D;55544;51.032;5.866;2023-01-24T07:46:52;4.73;73.36
68556;HTU21D;55544;51.032;5.866;2023-01-24T07:49:18;4.69;73.41
68556;HTU21D;55544;51.032;5.866;2023-01-24T07:51:43;4.68;73.50
68556;HTU21D;55544;51.032;5.866;2023-01-24T07:54:11;4.68;73.61
68556;HTU21D;55544;51.032;5.866;2023-01-24T07:56:36;4.71;73.65
68556;HTU21D;55544;51.032;5.866;2023-01-24T07:59:02;4.74;73.76
68556;HTU21D;55544;51.032;5.866;2023-01-24T08:01:28;4.75;73.46
68556;HTU21D;55544;51.032;5.866;2023-01-24T08:03:55;4.76;73.36
68556;HTU21D;55544;51.032;5.866;2023-01-24T08:06:22;4.77;73.22
68556;HTU21D;55544;51.032;5.866;2023-01-24T08:08:47;4.79;73.23
68556;HTU21D;55544;51.032;5.866;2023-01-24T08:11:13;4.77;73.03
68556;HTU21D;55544;51.032;5.866;2023-01-24T08:13:46;4.76;73.04
68556;HTU21D;55544;51.032;5.866;2023-01-24T08:16:12;4.75;73.17
68556;HTU21D;55544;51.032;5.866;2023-01-24T08:18:39;4.76;73.33
68556;HTU21D;55544;51.032;5.866;2023-01-24T08:21:05;4.79;73.35
68556;HTU21D;55544;51.032;5.866;2023-01-24T08:23:31;4.79;73.06
68556;HTU21D;55544;51.032;5.866;2023-01-24T08:25:57;4.78;73.21
68556;HTU21D;55544;51.032;5.866;2023-01-24T08:28:24;4.82;73.40
68556;HTU21D;55544;51.032;5.866;2023-01-24T08:30:50;4.84;73.33
68556;HTU21D;55544;51.032;5.866;2023-01-24T08:33:16;4.87;73.33
68556;HTU21D;55544;51.032;5.866;2023-01-24T08:35:45;4.89;73.23
68556;HTU21D;55544;51.032;5.866;2023-01-24T08:38:13;4.89;73.26
68556;HTU21D;55544;51.032;5.866;2023-01-24T08:40:39;4.87;73.17
68556;HTU21D;55544;51.032;5.866;2023-01-24T08:43:06;4.87;73.28
68556;HTU21D;55544;51.032;5.866;2023-01-24T08:45:32;4.88;73.36
68556;HTU21D;55544;51.032;5.866;2023-01-24T08:47:58;4.91;73.15
68556;HTU21D;55544;51.032;5.866;2023-01-24T08:50:25;4.92;73.12
68556;HTU21D;55544;51.032;5.866;2023-01-24T08:52:54;4.92;73.12
68556;HTU21D;55544;51.032;5.866;2023-01-24T08:55:21;4.94;72.99
68556;HTU21D;55544;51.032;5.866;2023-01-24T08:57:47;4.97;73.02
68556;HTU21D;55544;51.032;5.866;2023-01-24T09:00:13;5.01;72.93
68556;HTU21D;55544;51.032;5.866;2023-01-24T09:02:39;5.01;72.59
68556;HTU21D;55544;51.032;5.866;2023-01-24T09:05:06;4.98;72.45
68556;HTU21D;55544;51.032;5.866;2023-01-24T09:07:33;4.96;72.44
68556;HTU21D;55544;51.032;5.866;2023-01-24T09:10:03;4.94;72.31
68556;HTU21D;55544;51.032;5.866;2023-01-24T09:12:29;4.92;72.46
68556;HTU21D;55544;51.032;5.866;2023-01-24T09:14:57;4.89;72.48
68556;HTU21D;55544;51.032;5.866;2023-01-24T09:17:24;4.88;72.64
68556;HTU21D;55544;51.032;5.866;2023-01-24T09:19:50;4.94;72.64
68556;HTU21D;55544;51.032;5.866;2023-01-24T09:22:15;5.02;72.63
68556;HTU21D;55544;51.032;5.866;2023-01-24T09:24:41;5.05;72.22
68556;HTU21D;55544;51.032;5.866;2023-01-24T09:27:08;5.05;71.97
68556;HTU21D;55544;51.032;5.866;2023-01-24T09:29:34;5.06;71.95
68556;HTU21D;55544;51.032;5.866;2023-01-24T09:32:00;5.10;72.01
68556;HTU21D;55544;51.032;5.866;2023-01-24T09:34:25;5.16;71.77
68556;HTU21D;55544;51.032;5.866;2023-01-24T09:36:51;5.20;71.56
68556;HTU21D;55544;51.032;5.866;2023-01-24T09:39:17;5.20;71.42
68556;HTU21D;55544;51.032;5.866;2023-01-24T09:44:24;5.15;71.54
68556;HTU21D;55544;51.032;5.866;2023-01-24T09:46:55;5.16;71.66
68556;HTU21D;55544;51.032;5.866;2023-01-24T09:49:40;5.18;71.86
68556;HTU21D;55544;51.032;5.866;2023-01-24T09:52:14;5.23;71.98
68556;HTU21D;55544;51.032;5.866;2023-01-24T09:54:50;5.32;72.22
68556;HTU21D;55544;51.032;5.866;2023-01-24T09:57:29;5.39;71.98
68556;HTU21D;55544;51.032;5.866;2023-01-24T10:00:04;5.47;71.87
68556;HTU21D;55544;51.032;5.866;2023-01-24T10:02:35;5.50;71.76
68556;HTU21D;55544;51.032;5.866;2023-01-24T10:05:01;5.51;71.36
68556;HTU21D;55544;51.032;5.866;2023-01-24T10:21:18;5.77;70.33
68556;HTU21D;55544;51.032;5.866;2023-01-24T10:23:56;5.83;70.29
68556;HTU21D;55544;51.032;5.866;2023-01-24T10:26:49;5.89;70.05
68556;HTU21D;55544;51.032;5.866;2023-01-24T10:29:24;5.87;69.68
68556;HTU21D;55544;51.032;5.866;2023-01-24T10:34:32;5.82;69.55
68556;HTU21D;55544;51.032;5.866;2023-01-24T10:39:35;5.83;69.66
68556;HTU21D;55544;51.032;5.866;2023-01-24T10:42:01;5.86;69.67
68556;HTU21D;55544;51.032;5.866;2023-01-24T10:44:31;5.86;69.52
68556;HTU21D;55544;51.032;5.866;2023-01-24T10:50:06;5.82;69.08
68556;HTU21D;55544;51.032;5.866;2023-01-24T10:52:32;5.84;69.07
68556;HTU21D;55544;51.032;5.866;2023-01-24T10:55:01;5.90;69.25
68556;HTU21D;55544;51.032;5.866;2023-01-24T11:02:40;5.91;68.43
68556;HTU21D;55544;51.032;5.866;2023-01-24T11:05:13;5.85;68.46
68556;HTU21D;55544;51.032;5.866;2023-01-24T11:07:50;5.83;68.78
68556;HTU21D;55544;51.032;5.866;2023-01-24T11:12:56;5.72;69.08
68556;HTU21D;55544;51.032;5.866;2023-01-24T11:15:27;5.65;69.08
68556;HTU21D;55544;51.032;5.866;2023-01-24T11:17:57;5.59;69.35
68556;HTU21D;55544;51.032;5.866;2023-01-24T11:20:32;5.55;69.71
68556;HTU21D;55544;51.032;5.866;2023-01-24T11:23:15;5.56;70.12
68556;HTU21D;55544;51.032;5.866;2023-01-24T11:26:02;5.61;69.95
68556;HTU21D;55544;51.032;5.866;2023-01-24T11:28:34;5.57;69.93
68556;HTU21D;55544;51.032;5.866;2023-01-24T11:31:22;5.62;69.91
68556;HTU21D;55544;51.032;5.866;2023-01-24T11:39:29;5.63;69.96
68556;HTU21D;55544;51.032;5.866;2023-01-24T11:42:09;5.66;69.91
68556;HTU21D;55544;51.032;5.866;2023-01-24T11:47:16;5.65;69.99
68556;HTU21D;55544;51.032;5.866;2023-01-24T11:52:53;5.74;69.68
68556;HTU21D;55544;51.032;5.866;2023-01-24T12:14:33;5.57;70.39
68556;HTU21D;55544;51.032;5.866;2023-01-24T12:20:17;5.61;70.71
68556;HTU21D;55544;51.032;5.866;2023-01-24T12:22:48;5.67;70.88
68556;HTU21D;55544;51.032;5.866;2023-01-24T12:25:41;5.76;70.82
68556;HTU21D;55544;51.032;5.866;2023-01-24T12:28:24;5.85;70.86
68556;HTU21D;55544;51.032;5.866;2023-01-24T12:30:57;5.95;70.45
68556;HTU21D;55544;51.032;5.866;2023-01-24T12:33:33;6.02;70.52
68556;HTU21D;55544;51.032;5.866;2023-01-24T12:36:12;6.07;70.34
68556;HTU21D;55544;51.032;5.866;2023-01-24T12:38:45;6.10;69.66
68556;HTU21D;55544;51.032;5.866;2023-01-24T12:41:33;6.08;69.33
68556;HTU21D;55544;51.032;5.866;2023-01-24T12:44:28;6.06;69.07
68556;HTU21D;55544;51.032;5.866;2023-01-24T12:52:22;6.04;68.87
68556;HTU21D;55544;51.032;5.866;2023-01-24T12:55:04;6.05;68.85
68556;HTU21D;55544;51.032;5.866;2023-01-24T12:57:45;6.08;69.00
68556;HTU21D;55544;51.032;5.866;2023-01-24T13:00:23;6.07;69.00
68556;HTU21D;55544;51.032;5.866;2023-01-24T13:13:43;6.05;68.81
68556;HTU21D;55544;51.032;5.866;2023-01-24T13:21:47;6.08;69.33
68556;HTU21D;55544;51.032;5.866;2023-01-24T13:24:50;6.20;69.21
68556;HTU21D;55544;51.032;5.866;2023-01-24T13:27:31;6.20;69.04
68556;HTU21D;55544;51.032;5.866;2023-01-24T13:32:37;6.29;68.71
68556;HTU21D;55544;51.032;5.866;2023-01-24T13:35:19;6.31;68.30
68556;HTU21D;55544;51.032;5.866;2023-01-24T13:37:51;6.31;68.61
68556;HTU21D;55544;51.032;5.866;2023-01-24T13:40:23;6.35;68.60
68556;HTU21D;55544;51.032;5.866;2023-01-24T13:42:50;6.31;68.73
68556;HTU21D;55544;51.032;5.866;2023-01-24T13:56:26;6.38;68.62
68556;HTU21D;55544;51.032;5.866;2023-01-24T13:58:54;6.40;68.26
68556;HTU21D;55544;51.032;5.866;2023-01-24T14:01:21;6.26;67.89
68556;HTU21D;55544;51.032;5.866;2023-01-24T14:06:19;6.10;68.33
68556;HTU21D;55544;51.032;5.866;2023-01-24T14:09:21;5.97;68.69
68556;HTU21D;55544;51.032;5.866;2023-01-24T14:12:02;5.84;68.81
68556;HTU21D;55544;51.032;5.866;2023-01-24T14:14:36;5.67;69.35
68556;HTU21D;55544;51.032;5.866;2023-01-24T14:17:44;5.59;70.03
68556;HTU21D;55544;51.032;5.866;2023-01-24T14:20:22;5.53;70.48
68556;HTU21D;55544;51.032;5.866;2023-01-24T14:22:54;5.52;70.55
68556;HTU21D;55544;51.032;5.866;2023-01-24T14:25:44;5.54;70.75
68556;HTU21D;55544;51.032;5.866;2023-01-24T14:28:39;5.61;70.86
68556;HTU21D;55544;51.032;5.866;2023-01-24T14:31:25;5.71;70.87
68556;HTU21D;55544;51.032;5.866;2023-01-24T14:34:05;5.83;70.58
68556;HTU21D;55544;51.032;5.866;2023-01-24T14:36:36;5.84;70.00
68556;HTU21D;55544;51.032;5.866;2023-01-24T14:39:22;5.89;69.88
68556;HTU21D;55544;51.032;5.866;2023-01-24T14:41:52;5.87;69.42
68556;HTU21D;55544;51.032;5.866;2023-01-24T14:44:32;5.86;69.49
68556;HTU21D;55544;51.032;5.866;2023-01-24T14:47:24;5.87;69.29
68556;HTU21D;55544;51.032;5.866;2023-01-24T14:49:53;5.89;69.46
68556;HTU21D;55544;51.032;5.866;2023-01-24T14:52:22;5.87;69.15
68556;HTU21D;55544;51.032;5.866;2023-01-24T14:54:55;5.79;69.27
68556;HTU21D;55544;51.032;5.866;2023-01-24T14:57:32;5.65;69.36
68556;HTU21D;55544;51.032;5.866;2023-01-24T15:03:00;5.66;69.93
68556;HTU21D;55544;51.032;5.866;2023-01-24T15:05:36;5.60;69.93
68556;HTU21D;55544;51.032;5.866;2023-01-24T15:08:05;5.57;69.97
68556;HTU21D;55544;51.032;5.866;2023-01-24T15:10:40;5.62;70.24
68556;HTU21D;55544;51.032;5.866;2023-01-24T15:13:18;5.65;69.96
68556;HTU21D;55544;51.032;5.866;2023-01-24T15:15:45;5.62;69.86
68556;HTU21D;55544;51.032;5.866;2023-01-24T15:21:02;5.67;69.93
68556;HTU21D;55544;51.032;5.866;2023-01-24T15:23:30;5.66;69.90
68556;HTU21D;55544;51.032;5.866;2023-01-24T15:25:57;5.63;70.08
68556;HTU21D;55544;51.032;5.866;2023-01-24T15:28:29;5.65;70.07
68556;HTU21D;55544;51.032;5.866;2023-01-24T15:30:57;5.72;70.11
68556;HTU21D;55544;51.032;5.866;2023-01-24T15:33:26;5.76;69.68
68556;HTU21D;55544;51.032;5.866;2023-01-24T15:36:04;5.80;69.78
68556;HTU21D;55544;51.032;5.866;2023-01-24T15:38:32;5.83;69.53
68556;HTU21D;55544;51.032;5.866;2023-01-24T15:43:47;5.79;68.86
68556;HTU21D;55544;51.032;5.866;2023-01-24T15:46:27;5.76;69.16
68556;HTU21D;55544;51.032;5.866;2023-01-24T15:52:19;5.81;69.93
68556;HTU21D;55544;51.032;5.866;2023-01-24T15:54:52;5.79;69.66
68556;HTU21D;55544;51.032;5.866;2023-01-24T15:59:58;5.79;69.68
68556;HTU21D;55544;51.032;5.866;2023-01-24T16:02:25;5.82;69.38
68556;HTU21D;55544;51.032;5.866;2023-01-24T16:04:52;5.76;69.10
68556;HTU21D;55544;51.032;5.866;2023-01-24T16:07:18;5.64;69.29
68556;HTU21D;55544;51.032;5.866;2023-01-24T16:09:45;5.62;69.60
68556;HTU21D;55544;51.032;5.866;2023-01-24T16:12:14;5.51;69.61
68556;HTU21D;55544;51.032;5.866;2023-01-24T16:14:48;5.48;69.91
68556;HTU21D;55544;51.032;5.866;2023-01-24T16:17:18;5.52;70.03
68556;HTU21D;55544;51.032;5.866;2023-01-24T16:19:45;5.59;70.01
68556;HTU21D;55544;51.032;5.866;2023-01-24T16:22:10;5.56;69.86
68556;HTU21D;55544;51.032;5.866;2023-01-24T16:24:36;5.57;69.97
68556;HTU21D;55544;51.032;5.866;2023-01-24T16:27:03;5.62;69.89
68556;HTU21D;55544;51.032;5.866;2023-01-24T16:29:30;5.64;69.94
68556;HTU21D;55544;51.032;5.866;2023-01-24T16:31:58;5.68;69.84
68556;HTU21D;55544;51.032;5.866;2023-01-24T16:34:24;5.67;70.12
68556;HTU21D;55544;51.032;5.866;2023-01-24T16:36:50;5.66;70.23
68556;HTU21D;55544;51.032;5.866;2023-01-24T16:39:18;5.65;70.05
68556;HTU21D;55544;51.032;5.866;2023-01-24T16:41:48;5.65;70.03
68556;HTU21D;55544;51.032;5.866;2023-01-24T16:44:15;5.65;69.87
68556;HTU21D;55544;51.032;5.866;2023-01-24T16:46:48;5.62;69.34
68556;HTU21D;55544;51.032;5.866;2023-01-24T16:49:14;5.55;69.21
68556;HTU21D;55544;51.032;5.866;2023-01-24T16:51:42;5.48;69.34
68556;HTU21D;55544;51.032;5.866;2023-01-24T16:54:08;5.49;69.23
68556;HTU21D;55544;51.032;5.866;2023-01-24T16:56:34;5.46;69.34
68556;HTU21D;55544;51.032;5.866;2023-01-24T16:58:59;5.46;69.16
68556;HTU21D;55544;51.032;5.866;2023-01-24T17:01:25;5.37;69.27
68556;HTU21D;55544;51.032;5.866;2023-01-24T17:03:52;5.36;69.64
68556;HTU21D;55544;51.032;5.866;2023-01-24T17:06:19;5.37;69.78
68556;HTU21D;55544;51.032;5.866;2023-01-24T17:08:49;5.40;69.74
68556;HTU21D;55544;51.032;5.866;2023-01-24T17:11:15;5.34;69.77
68556;HTU21D;55544;51.032;5.866;2023-01-24T17:13:45;5.23;70.21
68556;HTU21D;55544;51.032;5.866;2023-01-24T17:16:12;5.19;70.37
68556;HTU21D;55544;51.032;5.866;2023-01-24T17:18:37;5.17;70.63
68556;HTU21D;55544;51.032;5.866;2023-01-24T17:21:06;5.21;70.53
68556;HTU21D;55544;51.032;5.866;2023-01-24T17:23:34;5.24;70.44
68556;HTU21D;55544;51.032;5.866;2023-01-24T17:26:02;5.27;70.32
68556;HTU21D;55544;51.032;5.866;2023-01-24T17:28:29;5.32;70.14
68556;HTU21D;55544;51.032;5.866;2023-01-24T17:30:55;5.37;70.13
68556;HTU21D;55544;51.032;5.866;2023-01-24T17:33:20;5.42;70.42
68556;HTU21D;55544;51.032;5.866;2023-01-24T17:35:46;5.46;70.39
68556;HTU21D;55544;51.032;5.866;2023-01-24T17:38:12;5.50;70.21
68556;HTU21D;55544;51.032;5.866;2023-01-24T17:40:38;5.49;69.84
68556;HTU21D;55544;51.032;5.866;2023-01-24T17:43:04;5.50;69.44
68556;HTU21D;55544;51.032;5.866;2023-01-24T17:45:29;5.51;69.37
68556;HTU21D;55544;51.032;5.866;2023-01-24T17:47:56;5.42;69.39
68556;HTU21D;55544;51.032;5.866;2023-01-24T17:50:22;5.40;69.68
68556;HTU21D;55544;51.032;5.866;2023-01-24T17:52:48;5.30;69.80
68556;HTU21D;55544;51.032;5.866;2023-01-24T17:55:14;5.25;69.87
68556;HTU21D;55544;51.032;5.866;2023-01-24T17:57:42;5.22;70.13
68556;HTU21D;55544;51.032;5.866;2023-01-24T18:00:09;5.25;70.18
68556;HTU21D;55544;51.032;5.866;2023-01-24T18:02:38;5.28;69.99
68556;HTU21D;55544;51.032;5.866;2023-01-24T18:05:05;5.30;69.64
68556;HTU21D;55544;51.032;5.866;2023-01-24T18:07:30;5.22;69.45